sensor_id;sensor_type;location;lat;lon;timestamp;temperature;humidity
15666;DHT22;20725;51.196;3.510;2022-11-13T00:01:14;5.80;99.90
15666;DHT22;20725;51.196;3.510;2022-11-13T00:03:59;5.80;99.90
15666;DHT22;20725;51.196;3.510;2022-11-13T00:13:50;5.80;99.90
15666;DHT22;20725;51.196;3.510;2022-11-13T00:16:46;5.80;99.90
15666;DHT22;20725;51.196;3.510;2022-11-13T00:19:16;5.80;99.90
15666;DHT22;20725;51.196;3.510;2022-11-13T00:21:43;5.80;99.90
15666;DHT22;20725;51.196;3.510;2022-11-13T00:24:10;5.90;99.90
15666;DHT22;20725;51.196;3.510;2022-11-13T00:26:37;6.00;99.90
15666;DHT22;20725;51.196;3.510;2022-11-13T00:29:07;5.90;99.90
15666;DHT22;20725;51.196;3.510;2022-11-13T00:31:34;5.90;99.90
15666;DHT22;20725;51.196;3.510;2022-11-13T00:34:01;5.90;99.90
15666;DHT22;20725;51.196;3.510;2022-11-13T00:36:28;5.80;99.90
15666;DHT22;20725;51.196;3.510;2022-11-13T00:38:55;5.70;99.90
15666;DHT22;20725;51.196;3.510;2022-11-13T00:41:23;5.70;99.90
15666;DHT22;20725;51.196;3.510;2022-11-13T00:43:50;5.70;99.90
15666;DHT22;20725;51.196;3.510;2022-11-13T00:46:19;5.70;99.90
15666;DHT22;20725;51.196;3.510;2022-11-13T00:48:46;5.60;99.90
15666;DHT22;20725;51.196;3.510;2022-11-13T00:51:13;5.60;99.90
15666;DHT22;20725;51.196;3.510;2022-11-13T00:53:40;5.70;99.90
15666;DHT22;20725;51.196;3.510;2022-11-13T00:56:07;5.60;99.90
15666;DHT22;20725;51.196;3.510;2022-11-13T00:58:34;5.50;99.90
15666;DHT22;20725;51.196;3.510;2022-11-13T01:06:13;5.50;99.90
15666;DHT22;20725;51.196;3.510;2022-11-13T01:08:41;5.50;99.90
15666;DHT22;20725;51.196;3.510;2022-11-13T01:11:13;5.50;99.90
15666;DHT22;20725;51.196;3.510;2022-11-13T01:13:42;5.40;99.90
15666;DHT22;20725;51.196;3.510;2022-11-13T01:16:11;5.50;99.90
15666;DHT22;20725;51.196;3.510;2022-11-13T01:18:39;5.50;99.90
15666;DHT22;20725;51.196;3.510;2022-11-13T01:21:09;5.50;99.90
15666;DHT22;20725;51.196;3.510;2022-11-13T01:23:38;5.50;99.90
15666;DHT22;20725;51.196;3.510;2022-11-13T01:26:10;5.50;99.90
15666;DHT22;20725;51.196;3.510;2022-11-13T01:28:37;5.50;99.90
15666;DHT22;20725;51.196;3.510;2022-11-13T01:31:05;5.50;99.90
15666;DHT22;20725;51.196;3.510;2022-11-13T01:33:32;5.50;99.90
15666;DHT22;20725;51.196;3.510;2022-11-13T01:36:00;5.40;99.90
15666;DHT22;20725;51.196;3.510;2022-11-13T01:38:27;5.50;99.90
15666;DHT22;20725;51.196;3.510;2022-11-13T01:40:56;5.40;99.90
15666;DHT22;20725;51.196;3.510;2022-11-13T01:43:24;5.40;99.90
15666;DHT22;20725;51.196;3.510;2022-11-13T01:46:07;5.40;99.90
15666;DHT22;20725;51.196;3.510;2022-11-13T01:48:37;5.40;99.90
15666;DHT22;20725;51.196;3.510;2022-11-13T01:51:08;5.40;99.90
15666;DHT22;20725;51.196;3.510;2022-11-13T01:53:36;5.40;99.90
15666;DHT22;20725;51.196;3.510;2022-11-13T01:56:06;5.40;99.90
15666;DHT22;20725;51.196;3.510;2022-11-13T01:58:33;5.40;99.90
15666;DHT22;20725;51.196;3.510;2022-11-13T02:01:01;5.40;99.90
15666;DHT22;20725;51.196;3.510;2022-11-13T02:03:28;5.30;99.90
15666;DHT22;20725;51.196;3.510;2022-11-13T02:05:55;5.30;99.90
15666;DHT22;20725;51.196;3.510;2022-11-13T02:08:23;5.20;99.90
15666;DHT22;20725;51.196;3.510;2022-11-13T02:10:50;5.30;99.90
15666;DHT22;20725;51.196;3.510;2022-11-13T02:13:20;5.30;99.90
15666;DHT22;20725;51.196;3.510;2022-11-13T02:15:48;5.20;99.90
15666;DHT22;20725;51.196;3.510;2022-11-13T02:18:16;5.30;99.90
15666;DHT22;20725;51.196;3.510;2022-11-13T02:20:48;5.40;99.90
15666;DHT22;20725;51.196;3.510;2022-11-13T02:23:24;5.40;99.90
15666;DHT22;20725;51.196;3.510;2022-11-13T02:25:55;5.30;99.90
15666;DHT22;20725;51.196;3.510;2022-11-13T02:28:22;5.40;99.90
15666;DHT22;20725;51.196;3.510;2022-11-13T02:30:49;5.40;99.90
15666;DHT22;20725;51.196;3.510;2022-11-13T02:33:22;5.50;99.90
15666;DHT22;20725;51.196;3.510;2022-11-13T02:35:49;5.50;99.90
15666;DHT22;20725;51.196;3.510;2022-11-13T02:38:16;5.50;99.90
15666;DHT22;20725;51.196;3.510;2022-11-13T02:40:43;5.40;99.90
15666;DHT22;20725;51.196;3.510;2022-11-13T02:43:11;5.40;99.90
15666;DHT22;20725;51.196;3.510;2022-11-13T02:45:38;5.40;99.90
15666;DHT22;20725;51.196;3.510;2022-11-13T02:48:06;5.40;99.90
15666;DHT22;20725;51.196;3.510;2022-11-13T02:50:35;5.40;99.90
15666;DHT22;20725;51.196;3.510;2022-11-13T02:53:03;5.30;99.90
15666;DHT22;20725;51.196;3.510;2022-11-13T02:55:30;5.30;99.90
15666;DHT22;20725;51.196;3.510;2022-11-13T02:57:57;5.40;99.90
15666;DHT22;20725;51.196;3.510;2022-11-13T03:00:26;5.30;99.90
15666;DHT22;20725;51.196;3.510;2022-11-13T03:02:53;5.40;99.90
15666;DHT22;20725;51.196;3.510;2022-11-13T03:05:21;5.40;99.90
15666;DHT22;20725;51.196;3.510;2022-11-13T03:07:50;5.30;99.90
15666;DHT22;20725;51.196;3.510;2022-11-13T03:10:18;5.30;99.90
15666;DHT22;20725;51.196;3.510;2022-11-13T03:12:46;5.40;99.90
15666;DHT22;20725;51.196;3.510;2022-11-13T03:15:13;5.30;99.90
15666;DHT22;20725;51.196;3.510;2022-11-13T03:17:42;5.40;99.90
15666;DHT22;20725;51.196;3.510;2022-11-13T03:20:09;5.40;99.90
15666;DHT22;20725;51.196;3.510;2022-11-13T03:22:36;5.30;99.90
15666;DHT22;20725;51.196;3.510;2022-11-13T03:25:04;5.40;99.90
15666;DHT22;20725;51.196;3.510;2022-11-13T03:27:31;5.20;99.90
15666;DHT22;20725;51.196;3.510;2022-11-13T03:29:58;5.30;99.90
15666;DHT22;20725;51.196;3.510;2022-11-13T03:32:25;5.30;99.90
15666;DHT22;20725;51.196;3.510;2022-11-13T03:34:54;5.30;99.90
15666;DHT22;20725;51.196;3.510;2022-11-13T03:37:21;5.30;99.90
15666;DHT22;20725;51.196;3.510;2022-11-13T03:39:48;5.30;99.90
15666;DHT22;20725;51.196;3.510;2022-11-13T03:42:15;5.30;99.90
15666;DHT22;20725;51.196;3.510;2022-11-13T03:44:42;5.40;99.90
15666;DHT22;20725;51.196;3.510;2022-11-13T03:47:09;5.40;99.90
15666;DHT22;20725;51.196;3.510;2022-11-13T03:49:36;5.40;99.90
15666;DHT22;20725;51.196;3.510;2022-11-13T03:52:05;5.50;99.90
15666;DHT22;20725;51.196;3.510;2022-11-13T03:54:32;5.40;99.90
15666;DHT22;20725;51.196;3.510;2022-11-13T03:57:00;5.40;99.90
15666;DHT22;20725;51.196;3.510;2022-11-13T03:59:26;5.40;99.90
15666;DHT22;20725;51.196;3.510;2022-11-13T04:01:54;5.40;99.90
15666;DHT22;20725;51.196;3.510;2022-11-13T04:04:21;5.50;99.90
15666;DHT22;20725;51.196;3.510;2022-11-13T04:06:48;5.50;99.90
15666;DHT22;20725;51.196;3.510;2022-11-13T04:09:17;5.50;99.90
15666;DHT22;20725;51.196;3.510;2022-11-13T04:11:45;5.50;99.90
15666;DHT22;20725;51.196;3.510;2022-11-13T04:14:12;5.40;99.90
15666;DHT22;20725;51.196;3.510;2022-11-13T04:16:39;5.40;99.90
15666;DHT22;20725;51.196;3.510;2022-11-13T04:19:06;5.50;99.90
15666;DHT22;20725;51.196;3.510;2022-11-13T04:21:33;5.50;99.90
15666;DHT22;20725;51.196;3.510;2022-11-13T04:24:00;5.40;99.90
15666;DHT22;20725;51.196;3.510;2022-11-13T04:26:29;5.50;99.90
15666;DHT22;20725;51.196;3.510;2022-11-13T04:28:55;5.60;99.90
15666;DHT22;20725;51.196;3.510;2022-11-13T04:31:23;5.60;99.90
15666;DHT22;20725;51.196;3.510;2022-11-13T04:33:50;5.60;99.90
15666;DHT22;20725;51.196;3.510;2022-11-13T04:36:17;5.70;99.90
15666;DHT22;20725;51.196;3.510;2022-11-13T04:38:44;5.70;99.90
15666;DHT22;20725;51.196;3.510;2022-11-13T04:41:12;5.80;99.90
15666;DHT22;20725;51.196;3.510;2022-11-13T04:43:57;5.80;99.90
15666;DHT22;20725;51.196;3.510;2022-11-13T04:46:24;5.80;99.90
15666;DHT22;20725;51.196;3.510;2022-11-13T04:48:52;5.80;99.90
15666;DHT22;20725;51.196;3.510;2022-11-13T04:51:19;5.90;99.90
15666;DHT22;20725;51.196;3.510;2022-11-13T04:53:46;5.90;99.90
15666;DHT22;20725;51.196;3.510;2022-11-13T04:56:13;6.00;99.90
15666;DHT22;20725;51.196;3.510;2022-11-13T04:58:41;5.90;99.90
15666;DHT22;20725;51.196;3.510;2022-11-13T05:01:10;6.00;99.90
15666;DHT22;20725;51.196;3.510;2022-11-13T05:03:37;6.00;99.90
15666;DHT22;20725;51.196;3.510;2022-11-13T05:06:05;5.90;99.90
15666;DHT22;20725;51.196;3.510;2022-11-13T05:08:32;5.90;99.90
15666;DHT22;20725;51.196;3.510;2022-11-13T05:11:00;5.90;99.90
15666;DHT22;20725;51.196;3.510;2022-11-13T05:13:29;6.00;99.90
15666;DHT22;20725;51.196;3.510;2022-11-13T05:16:01;6.00;99.90
15666;DHT22;20725;51.196;3.510;2022-11-13T05:18:30;6.00;99.90
15666;DHT22;20725;51.196;3.510;2022-11-13T05:20:57;6.00;99.90
15666;DHT22;20725;51.196;3.510;2022-11-13T05:23:25;6.20;99.90
15666;DHT22;20725;51.196;3.510;2022-11-13T05:26:00;6.10;99.90
15666;DHT22;20725;51.196;3.510;2022-11-13T05:28:27;6.20;99.90
15666;DHT22;20725;51.196;3.510;2022-11-13T05:31:02;6.20;99.90
15666;DHT22;20725;51.196;3.510;2022-11-13T05:33:30;6.20;99.90
15666;DHT22;20725;51.196;3.510;2022-11-13T05:36:00;6.00;99.90
15666;DHT22;20725;51.196;3.510;2022-11-13T05:38:28;5.80;99.90
15666;DHT22;20725;51.196;3.510;2022-11-13T05:41:00;5.80;99.90
15666;DHT22;20725;51.196;3.510;2022-11-13T05:43:27;5.80;99.90
15666;DHT22;20725;51.196;3.510;2022-11-13T05:46:00;5.90;99.90
15666;DHT22;20725;51.196;3.510;2022-11-13T05:48:27;6.00;99.90
15666;DHT22;20725;51.196;3.510;2022-11-13T05:51:00;6.00;99.90
15666;DHT22;20725;51.196;3.510;2022-11-13T05:53:27;6.00;99.90
15666;DHT22;20725;51.196;3.510;2022-11-13T05:55:54;6.00;99.90
15666;DHT22;20725;51.196;3.510;2022-11-13T05:58:22;6.00;99.90
15666;DHT22;20725;51.196;3.510;2022-11-13T06:00:48;6.10;99.90
15666;DHT22;20725;51.196;3.510;2022-11-13T06:03:16;6.10;99.90
15666;DHT22;20725;51.196;3.510;2022-11-13T06:05:43;6.20;99.90
15666;DHT22;20725;51.196;3.510;2022-11-13T06:08:12;6.10;99.90
15666;DHT22;20725;51.196;3.510;2022-11-13T06:10:39;6.20;99.90
15666;DHT22;20725;51.196;3.510;2022-11-13T06:13:05;6.10;99.90
15666;DHT22;20725;51.196;3.510;2022-11-13T06:15:32;6.20;99.90
15666;DHT22;20725;51.196;3.510;2022-11-13T06:17:59;6.10;99.90
15666;DHT22;20725;51.196;3.510;2022-11-13T06:20:26;6.20;99.90
15666;DHT22;20725;51.196;3.510;2022-11-13T06:22:54;6.20;99.90
15666;DHT22;20725;51.196;3.510;2022-11-13T06:25:22;6.10;99.90
15666;DHT22;20725;51.196;3.510;2022-11-13T06:27:49;6.10;99.90
15666;DHT22;20725;51.196;3.510;2022-11-13T06:30:16;6.20;99.90
15666;DHT22;20725;51.196;3.510;2022-11-13T06:32:43;6.30;99.90
15666;DHT22;20725;51.196;3.510;2022-11-13T06:35:11;6.20;99.90
15666;DHT22;20725;51.196;3.510;2022-11-13T06:37:38;6.20;99.90
15666;DHT22;20725;51.196;3.510;2022-11-13T06:40:07;6.00;99.90
15666;DHT22;20725;51.196;3.510;2022-11-13T06:42:36;6.00;99.90
15666;DHT22;20725;51.196;3.510;2022-11-13T06:45:03;6.00;99.90
15666;DHT22;20725;51.196;3.510;2022-11-13T06:47:30;6.00;99.90
15666;DHT22;20725;51.196;3.510;2022-11-13T06:49:57;6.10;99.90
15666;DHT22;20725;51.196;3.510;2022-11-13T06:52:25;6.30;99.90
15666;DHT22;20725;51.196;3.510;2022-11-13T06:54:52;6.30;99.90
15666;DHT22;20725;51.196;3.510;2022-11-13T06:57:19;6.40;99.90
15666;DHT22;20725;51.196;3.510;2022-11-13T06:59:47;6.50;99.90
15666;DHT22;20725;51.196;3.510;2022-11-13T07:02:14;6.50;99.90
15666;DHT22;20725;51.196;3.510;2022-11-13T07:04:42;6.50;99.90
15666;DHT22;20725;51.196;3.510;2022-11-13T07:07:09;6.60;99.90
15666;DHT22;20725;51.196;3.510;2022-11-13T07:09:36;6.50;99.90
15666;DHT22;20725;51.196;3.510;2022-11-13T07:12:03;6.50;99.90
15666;DHT22;20725;51.196;3.510;2022-11-13T07:14:30;6.50;99.90
15666;DHT22;20725;51.196;3.510;2022-11-13T07:16:59;6.70;99.90
15666;DHT22;20725;51.196;3.510;2022-11-13T07:19:27;6.70;99.90
15666;DHT22;20725;51.196;3.510;2022-11-13T07:21:54;6.80;99.90
15666;DHT22;20725;51.196;3.510;2022-11-13T07:24:21;6.90;99.90
15666;DHT22;20725;51.196;3.510;2022-11-13T07:26:48;7.00;99.90
15666;DHT22;20725;51.196;3.510;2022-11-13T07:29:15;6.90;99.90
15666;DHT22;20725;51.196;3.510;2022-11-13T07:31:43;7.00;99.90
15666;DHT22;20725;51.196;3.510;2022-11-13T07:34:12;7.20;99.90
15666;DHT22;20725;51.196;3.510;2022-11-13T07:36:39;7.20;99.90
15666;DHT22;20725;51.196;3.510;2022-11-13T07:39:06;7.40;99.90
15666;DHT22;20725;51.196;3.510;2022-11-13T07:41:33;7.50;99.90
15666;DHT22;20725;51.196;3.510;2022-11-13T07:44:00;7.60;99.90
15666;DHT22;20725;51.196;3.510;2022-11-13T07:46:27;7.80;99.90
15666;DHT22;20725;51.196;3.510;2022-11-13T07:48:55;7.90;99.90
15666;DHT22;20725;51.196;3.510;2022-11-13T07:51:30;7.90;99.90
15666;DHT22;20725;51.196;3.510;2022-11-13T07:53:57;8.00;99.90
15666;DHT22;20725;51.196;3.510;2022-11-13T07:56:24;8.10;99.90
15666;DHT22;20725;51.196;3.510;2022-11-13T07:58:51;8.10;99.90
15666;DHT22;20725;51.196;3.510;2022-11-13T08:01:19;8.10;99.90
15666;DHT22;20725;51.196;3.510;2022-11-13T08:03:46;8.10;99.90
15666;DHT22;20725;51.196;3.510;2022-11-13T08:06:13;8.10;99.90
15666;DHT22;20725;51.196;3.510;2022-11-13T08:08:41;8.40;99.90
15666;DHT22;20725;51.196;3.510;2022-11-13T08:11:08;8.50;99.90
15666;DHT22;20725;51.196;3.510;2022-11-13T08:13:36;8.70;99.90
15666;DHT22;20725;51.196;3.510;2022-11-13T08:16:07;8.80;99.90
15666;DHT22;20725;51.196;3.510;2022-11-13T08:18:34;8.80;99.90
15666;DHT22;20725;51.196;3.510;2022-11-13T08:21:05;8.70;99.90
15666;DHT22;20725;51.196;3.510;2022-11-13T08:23:32;8.60;99.90
15666;DHT22;20725;51.196;3.510;2022-11-13T08:26:04;8.80;99.90
15666;DHT22;20725;51.196;3.510;2022-11-13T08:28:32;9.00;99.90
15666;DHT22;20725;51.196;3.510;2022-11-13T08:30:59;9.20;99.90
15666;DHT22;20725;51.196;3.510;2022-11-13T08:33:26;9.50;99.90
15666;DHT22;20725;51.196;3.510;2022-11-13T08:35:54;9.60;99.90
15666;DHT22;20725;51.196;3.510;2022-11-13T08:38:22;9.70;99.90
15666;DHT22;20725;51.196;3.510;2022-11-13T08:40:49;10.00;99.90
15666;DHT22;20725;51.196;3.510;2022-11-13T08:43:17;10.20;99.90
15666;DHT22;20725;51.196;3.510;2022-11-13T08:45:45;10.70;99.90
15666;DHT22;20725;51.196;3.510;2022-11-13T08:48:13;10.70;99.90
15666;DHT22;20725;51.196;3.510;2022-11-13T08:50:40;10.70;99.90
15666;DHT22;20725;51.196;3.510;2022-11-13T08:53:08;10.80;99.90
15666;DHT22;20725;51.196;3.510;2022-11-13T08:55:36;10.90;99.90
15666;DHT22;20725;51.196;3.510;2022-11-13T08:58:04;10.50;99.90
15666;DHT22;20725;51.196;3.510;2022-11-13T09:00:32;10.50;99.90
15666;DHT22;20725;51.196;3.510;2022-11-13T09:03:01;10.50;99.90
15666;DHT22;20725;51.196;3.510;2022-11-13T09:05:31;10.70;99.90
15666;DHT22;20725;51.196;3.510;2022-11-13T09:07:59;10.50;99.90
15666;DHT22;20725;51.196;3.510;2022-11-13T09:10:27;10.70;99.90
15666;DHT22;20725;51.196;3.510;2022-11-13T09:12:58;10.90;99.90
15666;DHT22;20725;51.196;3.510;2022-11-13T09:15:26;11.10;99.90
15666;DHT22;20725;51.196;3.510;2022-11-13T09:17:57;11.30;99.90
15666;DHT22;20725;51.196;3.510;2022-11-13T09:20:24;11.50;99.90
15666;DHT22;20725;51.196;3.510;2022-11-13T09:22:56;11.30;99.90
15666;DHT22;20725;51.196;3.510;2022-11-13T09:25:24;11.00;99.90
15666;DHT22;20725;51.196;3.510;2022-11-13T09:28:00;11.00;99.90
15666;DHT22;20725;51.196;3.510;2022-11-13T09:30:28;11.00;99.90
15666;DHT22;20725;51.196;3.510;2022-11-13T09:33:02;11.20;99.90
15666;DHT22;20725;51.196;3.510;2022-11-13T09:35:31;11.30;99.90
15666;DHT22;20725;51.196;3.510;2022-11-13T09:38:02;11.40;99.90
15666;DHT22;20725;51.196;3.510;2022-11-13T09:40:38;11.60;99.90
15666;DHT22;20725;51.196;3.510;2022-11-13T09:43:18;11.80;99.90
15666;DHT22;20725;51.196;3.510;2022-11-13T09:45:49;11.80;99.90
15666;DHT22;20725;51.196;3.510;2022-11-13T09:48:26;11.90;99.90
15666;DHT22;20725;51.196;3.510;2022-11-13T09:50:56;11.80;99.90
15666;DHT22;20725;51.196;3.510;2022-11-13T09:53:35;12.10;99.90
15666;DHT22;20725;51.196;3.510;2022-11-13T09:56:18;12.20;99.90
15666;DHT22;20725;51.196;3.510;2022-11-13T09:58:53;12.30;99.90
15666;DHT22;20725;51.196;3.510;2022-11-13T10:01:27;12.20;99.90
15666;DHT22;20725;51.196;3.510;2022-11-13T10:03:59;12.30;99.90
15666;DHT22;20725;51.196;3.510;2022-11-13T10:06:37;12.40;99.90
15666;DHT22;20725;51.196;3.510;2022-11-13T10:09:14;12.40;99.90
15666;DHT22;20725;51.196;3.510;2022-11-13T10:11:51;12.50;99.90
15666;DHT22;20725;51.196;3.510;2022-11-13T10:14:23;12.50;99.90
15666;DHT22;20725;51.196;3.510;2022-11-13T10:16:55;12.60;99.90
15666;DHT22;20725;51.196;3.510;2022-11-13T10:19:31;12.90;99.90
15666;DHT22;20725;51.196;3.510;2022-11-13T10:22:10;13.10;99.90
15666;DHT22;20725;51.196;3.510;2022-11-13T10:24:42;13.10;99.90
15666;DHT22;20725;51.196;3.510;2022-11-13T10:27:13;13.30;99.90
15666;DHT22;20725;51.196;3.510;2022-11-13T10:29:41;13.60;99.90
15666;DHT22;20725;51.196;3.510;2022-11-13T10:32:15;13.30;99.90
15666;DHT22;20725;51.196;3.510;2022-11-13T10:34:52;13.10;99.90
15666;DHT22;20725;51.196;3.510;2022-11-13T10:37:29;13.60;99.90
15666;DHT22;20725;51.196;3.510;2022-11-13T10:40:03;14.10;99.90
15666;DHT22;20725;51.196;3.510;2022-11-13T10:42:44;14.40;99.90
15666;DHT22;20725;51.196;3.510;2022-11-13T10:45:15;14.00;99.90
15666;DHT22;20725;51.196;3.510;2022-11-13T10:47:46;14.10;99.90
15666;DHT22;20725;51.196;3.510;2022-11-13T10:50:20;14.80;99.90
15666;DHT22;20725;51.196;3.510;2022-11-13T10:52:49;14.30;99.90
15666;DHT22;20725;51.196;3.510;2022-11-13T10:55:24;14.90;99.90
15666;DHT22;20725;51.196;3.510;2022-11-13T10:57:57;16.10;99.90
15666;DHT22;20725;51.196;3.510;2022-11-13T11:00:28;16.00;99.90
15666;DHT22;20725;51.196;3.510;2022-11-13T11:02:56;17.50;99.90
15666;DHT22;20725;51.196;3.510;2022-11-13T11:05:25;19.50;99.90
15666;DHT22;20725;51.196;3.510;2022-11-13T11:07:54;22.40;98.10
15666;DHT22;20725;51.196;3.510;2022-11-13T11:10:28;25.10;93.90
15666;DHT22;20725;51.196;3.510;2022-11-13T11:12:59;26.40;86.30
15666;DHT22;20725;51.196;3.510;2022-11-13T11:15:40;29.40;78.90
15666;DHT22;20725;51.196;3.510;2022-11-13T11:18:21;28.60;55.20
15666;DHT22;20725;51.196;3.510;2022-11-13T11:20:54;26.70;55.50
15666;DHT22;20725;51.196;3.510;2022-11-13T11:23:41;27.10;56.20
15666;DHT22;20725;51.196;3.510;2022-11-13T11:26:39;28.00;56.30
15666;DHT22;20725;51.196;3.510;2022-11-13T11:29:35;29.10;53.50
15666;DHT22;20725;51.196;3.510;2022-11-13T11:32:22;28.90;49.10
15666;DHT22;20725;51.196;3.510;2022-11-13T11:34:55;29.90;52.00
15666;DHT22;20725;51.196;3.510;2022-11-13T11:37:29;29.00;46.80
15666;DHT22;20725;51.196;3.510;2022-11-13T11:40:01;31.30;44.40
15666;DHT22;20725;51.196;3.510;2022-11-13T11:42:33;32.90;46.50
15666;DHT22;20725;51.196;3.510;2022-11-13T11:45:10;33.60;40.80
15666;DHT22;20725;51.196;3.510;2022-11-13T11:47:39;33.10;41.00
15666;DHT22;20725;51.196;3.510;2022-11-13T11:50:12;32.70;40.10
15666;DHT22;20725;51.196;3.510;2022-11-13T11:52:54;31.40;40.40
15666;DHT22;20725;51.196;3.510;2022-11-13T11:55:40;33.20;41.40
15666;DHT22;20725;51.196;3.510;2022-11-13T11:58:17;32.10;38.60
15666;DHT22;20725;51.196;3.510;2022-11-13T12:00:50;32.60;37.20
15666;DHT22;20725;51.196;3.510;2022-11-13T12:03:48;35.10;38.20
15666;DHT22;20725;51.196;3.510;2022-11-13T12:06:26;35.70;33.20
15666;DHT22;20725;51.196;3.510;2022-11-13T12:09:03;33.10;34.70
15666;DHT22;20725;51.196;3.510;2022-11-13T12:11:37;36.40;37.40
15666;DHT22;20725;51.196;3.510;2022-11-13T12:14:12;38.60;32.40
15666;DHT22;20725;51.196;3.510;2022-11-13T12:16:48;37.40;31.50
15666;DHT22;20725;51.196;3.510;2022-11-13T12:19:25;37.50;31.30
15666;DHT22;20725;51.196;3.510;2022-11-13T12:22:01;39.00;29.00
15666;DHT22;20725;51.196;3.510;2022-11-13T12:24:47;39.80;30.00
15666;DHT22;20725;51.196;3.510;2022-11-13T12:27:24;38.70;26.70
15666;DHT22;20725;51.196;3.510;2022-11-13T12:30:06;37.90;28.70
15666;DHT22;20725;51.196;3.510;2022-11-13T12:32:43;39.50;28.80
15666;DHT22;20725;51.196;3.510;2022-11-13T12:35:15;38.60;28.00
15666;DHT22;20725;51.196;3.510;2022-11-13T12:37:48;34.80;28.70
15666;DHT22;20725;51.196;3.510;2022-11-13T12:40:25;32.10;32.30
15666;DHT22;20725;51.196;3.510;2022-11-13T12:42:59;30.70;35.40
15666;DHT22;20725;51.196;3.510;2022-11-13T12:45:44;29.70;36.30
15666;DHT22;20725;51.196;3.510;2022-11-13T12:48:25;29.00;38.30
15666;DHT22;20725;51.196;3.510;2022-11-13T12:50:56;28.50;40.40
15666;DHT22;20725;51.196;3.510;2022-11-13T12:53:26;28.50;40.40
15666;DHT22;20725;51.196;3.510;2022-11-13T12:55:58;27.90;40.60
15666;DHT22;20725;51.196;3.510;2022-11-13T12:58:27;27.60;42.70
15666;DHT22;20725;51.196;3.510;2022-11-13T13:00:56;27.50;42.10
15666;DHT22;20725;51.196;3.510;2022-11-13T13:03:45;27.10;42.70
15666;DHT22;20725;51.196;3.510;2022-11-13T13:06:27;27.00;43.80
15666;DHT22;20725;51.196;3.510;2022-11-13T13:09:11;26.80;44.80
15666;DHT22;20725;51.196;3.510;2022-11-13T13:11:48;26.40;45.40
15666;DHT22;20725;51.196;3.510;2022-11-13T13:14:39;26.10;46.10
15666;DHT22;20725;51.196;3.510;2022-11-13T13:17:17;27.30;46.20
15666;DHT22;20725;51.196;3.510;2022-11-13T13:19:56;29.20;43.50
15666;DHT22;20725;51.196;3.510;2022-11-13T13:22:26;30.70;41.60
15666;DHT22;20725;51.196;3.510;2022-11-13T13:25:02;33.60;39.50
15666;DHT22;20725;51.196;3.510;2022-11-13T13:27:35;33.80;36.00
15666;DHT22;20725;51.196;3.510;2022-11-13T13:30:18;35.10;35.00
15666;DHT22;20725;51.196;3.510;2022-11-13T13:32:56;37.00;31.20
15666;DHT22;20725;51.196;3.510;2022-11-13T13:35:30;38.10;29.30
15666;DHT22;20725;51.196;3.510;2022-11-13T13:38:04;38.40;29.10
15666;DHT22;20725;51.196;3.510;2022-11-13T13:40:38;39.20;28.70
15666;DHT22;20725;51.196;3.510;2022-11-13T13:43:21;39.50;27.50
15666;DHT22;20725;51.196;3.510;2022-11-13T13:46:03;39.30;27.00
15666;DHT22;20725;51.196;3.510;2022-11-13T13:48:37;39.20;26.80
15666;DHT22;20725;51.196;3.510;2022-11-13T13:51:15;39.10;27.20
15666;DHT22;20725;51.196;3.510;2022-11-13T13:53:43;39.50;27.90
15666;DHT22;20725;51.196;3.510;2022-11-13T13:56:11;39.60;26.90
15666;DHT22;20725;51.196;3.510;2022-11-13T13:58:41;40.50;26.70
15666;DHT22;20725;51.196;3.510;2022-11-13T14:01:12;41.00;25.60
15666;DHT22;20725;51.196;3.510;2022-11-13T14:03:40;41.40;25.10
15666;DHT22;20725;51.196;3.510;2022-11-13T14:06:16;41.20;24.90
15666;DHT22;20725;51.196;3.510;2022-11-13T14:08:44;41.20;25.00
15666;DHT22;20725;51.196;3.510;2022-11-13T14:11:18;41.00;24.70
15666;DHT22;20725;51.196;3.510;2022-11-13T14:13:46;40.40;24.50
15666;DHT22;20725;51.196;3.510;2022-11-13T14:16:13;40.30;24.70
15666;DHT22;20725;51.196;3.510;2022-11-13T14:18:41;39.70;24.60
15666;DHT22;20725;51.196;3.510;2022-11-13T14:21:12;39.60;25.00
15666;DHT22;20725;51.196;3.510;2022-11-13T14:23:44;39.80;24.80
15666;DHT22;20725;51.196;3.510;2022-11-13T14:26:12;39.40;24.50
15666;DHT22;20725;51.196;3.510;2022-11-13T14:28:49;39.60;24.60
15666;DHT22;20725;51.196;3.510;2022-11-13T14:31:18;39.60;24.60
15666;DHT22;20725;51.196;3.510;2022-11-13T14:33:47;39.60;24.30
15666;DHT22;20725;51.196;3.510;2022-11-13T14:36:24;39.40;24.30
15666;DHT22;20725;51.196;3.510;2022-11-13T14:38:54;39.10;24.40
15666;DHT22;20725;51.196;3.510;2022-11-13T14:41:25;38.70;24.50
15666;DHT22;20725;51.196;3.510;2022-11-13T14:43:56;38.20;24.70
15666;DHT22;20725;51.196;3.510;2022-11-13T14:46:27;37.50;25.00
15666;DHT22;20725;51.196;3.510;2022-11-13T14:48:56;37.00;25.80
15666;DHT22;20725;51.196;3.510;2022-11-13T14:51:25;36.90;26.10
15666;DHT22;20725;51.196;3.510;2022-11-13T14:53:57;36.60;25.90
15666;DHT22;20725;51.196;3.510;2022-11-13T14:56:32;36.40;26.20
15666;DHT22;20725;51.196;3.510;2022-11-13T14:59:09;36.20;26.10
15666;DHT22;20725;51.196;3.510;2022-11-13T15:01:38;35.40;26.60
15666;DHT22;20725;51.196;3.510;2022-11-13T15:04:05;34.60;26.90
15666;DHT22;20725;51.196;3.510;2022-11-13T15:06:34;32.60;27.40
15666;DHT22;20725;51.196;3.510;2022-11-13T15:09:03;29.30;30.00
15666;DHT22;20725;51.196;3.510;2022-11-13T15:11:31;26.70;33.60
15666;DHT22;20725;51.196;3.510;2022-11-13T15:13:59;24.60;37.10
15666;DHT22;20725;51.196;3.510;2022-11-13T15:16:28;23.10;40.30
15666;DHT22;20725;51.196;3.510;2022-11-13T15:19:00;21.90;43.30
15666;DHT22;20725;51.196;3.510;2022-11-13T15:21:28;20.90;46.20
15666;DHT22;20725;51.196;3.510;2022-11-13T15:23:56;20.00;48.00
15666;DHT22;20725;51.196;3.510;2022-11-13T15:26:23;19.20;50.00
15666;DHT22;20725;51.196;3.510;2022-11-13T15:28:50;18.60;51.80
15666;DHT22;20725;51.196;3.510;2022-11-13T15:31:18;18.10;53.40
15666;DHT22;20725;51.196;3.510;2022-11-13T15:33:47;17.50;55.00
15666;DHT22;20725;51.196;3.510;2022-11-13T15:36:15;17.00;57.20
15666;DHT22;20725;51.196;3.510;2022-11-13T15:38:43;16.50;58.90
15666;DHT22;20725;51.196;3.510;2022-11-13T15:41:12;16.00;60.10
15666;DHT22;20725;51.196;3.510;2022-11-13T15:43:42;15.70;62.50
15666;DHT22;20725;51.196;3.510;2022-11-13T15:46:11;15.30;65.10
15666;DHT22;20725;51.196;3.510;2022-11-13T15:48:41;14.90;66.70
15666;DHT22;20725;51.196;3.510;2022-11-13T15:51:15;14.50;67.70
15666;DHT22;20725;51.196;3.510;2022-11-13T15:53:45;14.20;69.80
15666;DHT22;20725;51.196;3.510;2022-11-13T15:56:13;13.90;70.60
15666;DHT22;20725;51.196;3.510;2022-11-13T15:58:40;13.60;72.10
15666;DHT22;20725;51.196;3.510;2022-11-13T16:01:08;13.30;74.40
15666;DHT22;20725;51.196;3.510;2022-11-13T16:03:52;12.90;76.40
15666;DHT22;20725;51.196;3.510;2022-11-13T16:06:27;12.80;78.80
15666;DHT22;20725;51.196;3.510;2022-11-13T16:08:59;12.50;79.60
15666;DHT22;20725;51.196;3.510;2022-11-13T16:11:44;12.30;80.70
15666;DHT22;20725;51.196;3.510;2022-11-13T16:14:17;12.10;84.80